createdAt,value
2018-12-24T00:01:57.258Z,11.97
2018-12-24T00:04:26.970Z,11.73
2018-12-24T00:06:58.081Z,10.70
2018-12-24T00:09:27.822Z,12.13
2018-12-24T00:11:58.041Z,11.60
2018-12-24T00:14:27.852Z,11.30
2018-12-24T00:16:57.627Z,11.67
2018-12-24T00:19:27.434Z,9.90
2018-12-24T00:22:00.024Z,8.67
2018-12-24T00:24:29.796Z,8.27
2018-12-24T00:27:02.645Z,8.17
2018-12-24T00:29:32.447Z,10.27
2018-12-24T00:32:02.169Z,10.63
2018-12-24T00:34:31.983Z,10.73
2018-12-24T00:37:01.754Z,10.07
2018-12-24T00:39:31.560Z,10.70
2018-12-24T00:42:01.458Z,10.13
2018-12-24T00:44:31.272Z,10.57
2018-12-24T00:47:01.083Z,10.23
2018-12-24T00:49:30.894Z,9.43
2018-12-24T00:52:01.222Z,10.53
2018-12-24T00:54:33.378Z,8.97
2018-12-24T00:57:03.130Z,10.13
2018-12-24T00:59:32.877Z,9.20
2018-12-24T01:02:02.697Z,8.43
2018-12-24T01:04:32.644Z,9.87
2018-12-24T01:07:02.451Z,7.40
2018-12-24T01:09:32.627Z,7.23
2018-12-24T01:12:02.382Z,8.93
2018-12-24T01:14:32.124Z,8.43
2018-12-24T01:17:02.000Z,8.20
2018-12-24T01:19:31.711Z,7.33
2018-12-24T01:22:01.490Z,7.70
2018-12-24T01:24:31.277Z,7.90
2018-12-24T01:27:02.120Z,9.47
2018-12-24T01:29:31.889Z,9.47
2018-12-24T01:32:01.717Z,9.33
2018-12-24T01:34:31.496Z,9.77
2018-12-24T01:37:01.602Z,9.97
2018-12-24T01:39:31.414Z,10.47
2018-12-24T01:42:01.282Z,11.10
2018-12-24T01:44:31.061Z,12.10
2018-12-24T01:47:01.256Z,12.70
2018-12-24T01:49:31.128Z,12.83
2018-12-24T01:52:04.273Z,34.17
2018-12-24T01:54:34.254Z,17.90
2018-12-24T01:57:04.022Z,17.30
2018-12-24T01:59:33.824Z,17.70
2018-12-24T02:02:03.575Z,18.20
2018-12-24T02:04:33.380Z,18.67
2018-12-24T02:07:03.265Z,17.67
2018-12-24T02:09:33.077Z,19.90
2018-12-24T02:12:04.248Z,20.23
2018-12-24T02:14:34.017Z,20.50
2018-12-24T02:17:05.004Z,20.57
2018-12-24T02:19:35.089Z,20.27
2018-12-24T02:22:12.661Z,19.70
2018-12-24T02:24:36.612Z,20.10
2018-12-24T02:27:06.374Z,19.93
2018-12-24T02:29:36.169Z,19.57
2018-12-24T02:32:05.985Z,20.43
2018-12-24T02:34:35.738Z,21.23
2018-12-24T02:37:05.887Z,21.67
2018-12-24T02:39:35.727Z,22.40
2018-12-24T02:42:05.549Z,21.40
2018-12-24T02:44:35.303Z,21.87
2018-12-24T02:47:05.085Z,21.90
2018-12-24T02:49:34.874Z,21.00
2018-12-24T02:52:04.699Z,21.47
2018-12-24T02:54:34.520Z,21.53
2018-12-24T02:57:04.305Z,22.53
2018-12-24T02:59:34.050Z,22.90
2018-12-24T03:02:03.876Z,24.10
2018-12-24T03:04:33.703Z,24.87
2018-12-24T03:07:04.830Z,25.30
2018-12-24T03:09:34.586Z,25.27
2018-12-24T03:12:04.440Z,23.90
2018-12-24T03:14:34.213Z,25.10
2018-12-24T03:17:06.686Z,25.77
2018-12-24T03:19:36.476Z,24.70
2018-12-24T03:22:06.320Z,24.00
2018-12-24T03:24:36.234Z,23.23
2018-12-24T03:27:06.370Z,23.97
2018-12-24T03:29:36.183Z,24.00
2018-12-24T03:32:07.230Z,24.67
2018-12-24T03:34:37.073Z,21.97
2018-12-24T03:37:08.002Z,23.47
2018-12-24T03:39:37.826Z,22.67
2018-12-24T03:42:07.798Z,20.80
2018-12-24T03:44:37.624Z,20.83
2018-12-24T03:47:07.418Z,20.87
2018-12-24T03:49:37.266Z,19.37
2018-12-24T03:52:07.116Z,20.50
2018-12-24T03:54:36.951Z,21.63
2018-12-24T03:57:07.101Z,21.70
2018-12-24T03:59:36.852Z,21.03
2018-12-24T04:02:06.705Z,21.40
2018-12-24T04:04:36.580Z,19.27
2018-12-24T04:07:06.362Z,19.87
2018-12-24T04:09:36.179Z,19.00
2018-12-24T04:12:06.365Z,18.03
2018-12-24T04:14:36.257Z,17.77
2018-12-24T04:17:06.055Z,17.57
2018-12-24T04:19:35.862Z,18.27
2018-12-24T04:22:05.680Z,18.63
2018-12-24T04:24:35.463Z,18.03
2018-12-24T04:27:07.176Z,16.40
2018-12-24T04:29:37.001Z,17.10
2018-12-24T04:32:06.849Z,15.30
2018-12-24T04:34:36.709Z,17.23
2018-12-24T04:37:09.016Z,16.23
2018-12-24T04:39:39.052Z,17.33
2018-12-24T04:42:08.885Z,16.77
2018-12-24T04:44:38.751Z,16.40
2018-12-24T04:47:08.554Z,15.03
2018-12-24T04:49:38.370Z,15.43
2018-12-24T04:52:08.215Z,15.80
2018-12-24T04:54:38.006Z,16.47
2018-12-24T04:57:07.797Z,15.20
2018-12-24T04:59:37.622Z,15.23
2018-12-24T05:02:07.458Z,15.23
2018-12-24T05:04:37.274Z,15.10
2018-12-24T05:07:07.053Z,16.50
2018-12-24T05:09:36.889Z,15.17
2018-12-24T05:12:06.770Z,16.10
2018-12-24T05:14:36.604Z,15.57
2018-12-24T05:17:06.403Z,15.43
2018-12-24T05:19:36.202Z,14.83
2018-12-24T05:22:06.016Z,15.07
2018-12-24T05:24:35.785Z,15.00
2018-12-24T05:27:05.566Z,14.67
2018-12-24T05:29:35.396Z,14.43
2018-12-24T05:32:05.236Z,14.67
2018-12-24T05:34:35.423Z,16.17
2018-12-24T05:37:05.204Z,14.70
2018-12-24T05:39:35.012Z,16.30
2018-12-24T05:42:04.921Z,17.57
2018-12-24T05:44:34.766Z,17.87
2018-12-24T05:47:04.618Z,17.67
2018-12-24T05:49:34.757Z,17.10
2018-12-24T05:52:04.557Z,17.23
2018-12-24T05:54:34.330Z,17.33
2018-12-24T05:57:04.124Z,16.47
2018-12-24T05:59:34.011Z,16.23
2018-12-24T06:02:03.797Z,15.97
2018-12-24T06:04:33.414Z,16.57
2018-12-24T06:07:03.251Z,14.20
2018-12-24T06:09:33.023Z,14.17
2018-12-24T06:12:02.822Z,14.60
2018-12-24T06:14:32.633Z,15.60
2018-12-24T06:17:02.464Z,13.77
2018-12-24T06:19:32.247Z,13.17
2018-12-24T06:22:02.016Z,12.67
2018-12-24T06:24:32.809Z,13.63
2018-12-24T06:27:02.609Z,12.80
2018-12-24T06:29:32.426Z,12.97
2018-12-24T06:32:02.311Z,12.30
2018-12-24T06:34:32.144Z,12.37
2018-12-24T06:37:01.926Z,11.80
2018-12-24T06:39:31.699Z,11.73
2018-12-24T06:42:01.551Z,11.00
2018-12-24T06:44:31.351Z,10.90
2018-12-24T06:47:01.139Z,10.87
2018-12-24T06:49:30.934Z,10.73
2018-12-24T06:52:00.832Z,10.27
2018-12-24T06:54:30.955Z,9.80
2018-12-24T06:57:00.796Z,16.50
2018-12-24T06:59:30.562Z,8.67
2018-12-24T07:02:00.404Z,8.57
2018-12-24T07:04:30.347Z,9.20
2018-12-24T07:07:00.236Z,12.70
2018-12-24T07:09:30.075Z,15.83
2018-12-24T07:11:59.912Z,10.00
2018-12-24T07:14:29.714Z,10.40
2018-12-24T07:16:59.533Z,9.63
2018-12-24T07:19:29.326Z,10.17
2018-12-24T07:21:59.157Z,8.47
2018-12-24T07:24:31.073Z,9.30
2018-12-24T07:27:00.867Z,10.13
2018-12-24T07:29:30.659Z,9.83
2018-12-24T07:32:00.545Z,15.10
2018-12-24T07:34:32.579Z,11.00
2018-12-24T07:37:01.949Z,9.73
2018-12-24T07:39:31.740Z,8.33
2018-12-24T07:42:01.533Z,8.93
2018-12-24T07:44:31.324Z,8.47
2018-12-24T07:47:01.169Z,8.60
2018-12-24T07:49:30.982Z,8.30
2018-12-24T07:52:00.985Z,7.97
2018-12-24T07:54:30.739Z,8.13
2018-12-24T07:57:00.545Z,7.80
2018-12-24T07:59:30.363Z,8.27
2018-12-24T08:02:00.119Z,9.00
2018-12-24T08:04:29.935Z,8.87
2018-12-24T08:06:59.670Z,9.70
2018-12-24T08:09:29.481Z,9.50
2018-12-24T08:11:59.317Z,8.57
2018-12-24T08:14:33.175Z,9.63
2018-12-24T08:17:00.855Z,9.33
2018-12-24T08:19:30.706Z,8.60
2018-12-24T08:22:00.500Z,8.93
2018-12-24T08:24:30.305Z,9.43
2018-12-24T08:27:00.152Z,8.70
2018-12-24T08:29:29.966Z,8.07
2018-12-24T08:31:59.778Z,8.70
2018-12-24T08:34:29.577Z,8.80
2018-12-24T08:36:59.439Z,9.00
2018-12-24T08:39:29.225Z,8.83
2018-12-24T08:41:59.049Z,9.57
2018-12-24T08:44:28.870Z,9.33
2018-12-24T08:47:03.182Z,11.73
2018-12-24T08:49:33.285Z,11.50
2018-12-24T08:52:03.145Z,9.70
2018-12-24T08:54:32.963Z,9.97
2018-12-24T08:57:02.811Z,10.13
2018-12-24T08:59:32.647Z,10.10
2018-12-24T09:02:02.442Z,9.80
2018-12-24T09:04:32.224Z,8.60
2018-12-24T09:07:03.035Z,9.03
2018-12-24T09:09:32.840Z,8.43
2018-12-24T09:12:02.678Z,7.93
2018-12-24T09:14:32.448Z,8.00
2018-12-24T09:17:02.257Z,7.90
2018-12-24T09:19:32.213Z,7.97
2018-12-24T09:22:02.059Z,9.80
2018-12-24T09:24:31.880Z,8.03
2018-12-24T09:27:01.646Z,7.50
2018-12-24T09:29:31.535Z,8.43
2018-12-24T09:32:01.399Z,9.33
2018-12-24T09:34:31.167Z,7.80
2018-12-24T09:37:00.947Z,7.90
2018-12-24T09:39:30.804Z,8.77
2018-12-24T09:42:00.623Z,8.23
2018-12-24T09:44:30.473Z,7.90
2018-12-24T09:47:00.301Z,7.97
2018-12-24T09:49:30.134Z,8.03
2018-12-24T09:52:00.944Z,8.70
2018-12-24T09:54:30.810Z,13.93
2018-12-24T09:57:00.599Z,12.37
2018-12-24T09:59:30.478Z,14.00
2018-12-24T10:02:00.343Z,18.40
2018-12-24T10:04:36.973Z,19.17
2018-12-24T10:07:29.741Z,18.33
2018-12-24T10:09:59.536Z,18.30
2018-12-24T10:12:29.391Z,17.70
2018-12-24T10:15:07.658Z,19.40
2018-12-24T10:18:23.301Z,21.87
2018-12-24T10:20:52.684Z,19.70
2018-12-24T10:23:22.032Z,21.57
2018-12-24T10:25:51.406Z,21.43
2018-12-24T10:28:20.754Z,21.17
2018-12-24T10:30:50.134Z,21.77
2018-12-24T10:33:19.539Z,20.03
2018-12-24T10:35:48.924Z,21.13
2018-12-24T10:38:18.313Z,19.03
2018-12-24T10:41:06.846Z,20.23
2018-12-24T10:43:36.231Z,18.00
2018-12-24T10:46:05.590Z,17.33
2018-12-24T10:48:34.977Z,13.23
2018-12-24T10:51:04.405Z,13.37
2018-12-24T10:53:33.783Z,13.17
2018-12-24T10:56:03.137Z,14.07
2018-12-24T10:58:32.588Z,12.83
2018-12-24T11:01:01.997Z,12.53
2018-12-24T11:03:31.402Z,10.87
2018-12-24T11:06:00.767Z,20.87
2018-12-24T11:08:30.142Z,14.43
2018-12-24T11:10:59.546Z,11.90
2018-12-24T11:13:28.951Z,11.00
2018-12-24T11:15:58.319Z,1.80
2018-12-24T11:18:27.702Z,2.10
2018-12-24T11:20:57.124Z,2.37
2018-12-24T11:23:26.569Z,1.70
2018-12-24T11:25:56.009Z,2.50
2018-12-24T11:28:25.347Z,2.10
2018-12-24T11:30:54.835Z,2.27
2018-12-24T11:33:24.181Z,1.60
2018-12-24T11:35:53.544Z,1.90
2018-12-24T11:38:23.004Z,2.10
2018-12-24T11:40:52.460Z,1.90
2018-12-24T11:43:21.804Z,1.50
2018-12-24T11:45:51.199Z,1.70
2018-12-24T11:48:20.593Z,1.00
2018-12-24T11:50:50.007Z,2.60
2018-12-24T11:53:19.402Z,1.40
2018-12-24T11:55:48.833Z,1.33
2018-12-24T11:58:18.181Z,1.40
2018-12-24T12:00:47.546Z,1.20
2018-12-24T12:03:16.932Z,1.63
2018-12-24T12:05:46.282Z,1.30
2018-12-24T12:08:15.632Z,1.60
2018-12-24T12:10:45.052Z,1.50
2018-12-24T12:13:14.425Z,1.13
2018-12-24T12:15:43.774Z,2.90
2018-12-24T12:18:13.137Z,1.67
2018-12-24T12:20:42.499Z,2.43
2018-12-24T12:23:11.922Z,1.53
2018-12-24T12:25:41.347Z,1.87
2018-12-24T12:28:10.787Z,3.23
2018-12-24T12:30:40.201Z,2.30
2018-12-24T12:33:09.558Z,1.70
2018-12-24T12:35:38.906Z,1.60
2018-12-24T12:38:08.265Z,1.50
2018-12-24T12:40:37.618Z,1.97
2018-12-24T12:43:07.419Z,1.63
2018-12-24T12:45:36.766Z,2.67
2018-12-24T12:48:06.124Z,1.67
2018-12-24T12:50:35.585Z,2.33
2018-12-24T12:53:04.997Z,1.57
2018-12-24T12:55:34.355Z,2.77
2018-12-24T12:58:03.709Z,1.70
2018-12-24T13:00:33.129Z,1.30
2018-12-24T13:03:02.528Z,1.83
2018-12-24T13:05:31.924Z,1.80
2018-12-24T13:08:01.314Z,2.20
2018-12-24T13:10:30.699Z,1.50
2018-12-24T13:13:00.157Z,1.70
2018-12-24T13:15:29.486Z,1.27
2018-12-24T13:17:58.855Z,1.70
2018-12-24T13:20:28.273Z,1.60
2018-12-24T13:22:57.615Z,1.73
2018-12-24T13:25:26.973Z,1.80
2018-12-24T13:27:56.398Z,2.53
2018-12-24T13:30:25.770Z,1.40
2018-12-24T13:32:55.121Z,2.93
2018-12-24T13:35:24.507Z,1.80
2018-12-24T13:37:53.868Z,2.03
2018-12-24T13:40:23.247Z,1.60
2018-12-24T13:42:52.655Z,1.57
2018-12-24T13:45:22.051Z,1.87
2018-12-24T13:47:51.411Z,1.80
2018-12-24T13:50:20.847Z,1.50
2018-12-24T13:52:50.275Z,1.60
2018-12-24T13:55:19.666Z,1.83
2018-12-24T13:57:49.035Z,2.10
2018-12-24T14:00:18.467Z,1.90
2018-12-24T14:02:47.818Z,1.50
2018-12-24T14:05:17.220Z,1.70
2018-12-24T14:07:46.598Z,2.07
2018-12-24T14:10:16.280Z,1.90
2018-12-24T14:12:45.727Z,1.90
2018-12-24T14:15:15.079Z,2.10
2018-12-24T14:17:44.443Z,1.47
2018-12-24T14:20:13.810Z,1.90
2018-12-24T14:22:43.219Z,1.97
2018-12-24T14:25:12.588Z,1.80
2018-12-24T14:27:41.947Z,1.70
2018-12-24T14:30:12.442Z,1.60
2018-12-24T14:32:43.536Z,1.50
2018-12-24T14:35:12.930Z,2.20
2018-12-24T14:37:42.264Z,1.80
2018-12-24T14:40:11.599Z,3.40
2018-12-24T14:42:40.992Z,2.40
2018-12-24T14:45:10.351Z,2.73
2018-12-24T14:47:39.727Z,2.30
2018-12-24T14:50:09.574Z,1.90
2018-12-24T14:52:39.015Z,1.73
2018-12-24T14:55:08.436Z,1.70
2018-12-24T14:57:37.829Z,1.47
2018-12-24T15:00:08.250Z,1.60
2018-12-24T15:02:37.644Z,1.40
2018-12-24T15:05:07.047Z,2.30
2018-12-24T15:07:36.458Z,2.27
2018-12-24T15:10:06.122Z,2.30
2018-12-24T15:12:35.507Z,1.50
2018-12-24T15:15:04.999Z,1.93
2018-12-24T15:17:34.477Z,1.50
2018-12-24T15:20:04.015Z,1.90
2018-12-24T15:22:33.478Z,2.10
2018-12-24T15:25:02.896Z,2.37
2018-12-24T15:27:32.284Z,2.37
2018-12-24T15:30:01.665Z,2.70
2018-12-24T15:32:30.973Z,2.67
2018-12-24T15:35:00.373Z,2.13
2018-12-24T15:37:29.811Z,1.47
2018-12-24T15:39:59.133Z,1.43
2018-12-24T15:42:28.472Z,1.40
2018-12-24T15:44:57.880Z,1.57
2018-12-24T15:47:27.284Z,2.30
2018-12-24T15:49:56.663Z,3.00
2018-12-24T15:52:26.012Z,4.30
2018-12-24T15:54:55.381Z,5.83
2018-12-24T15:57:24.723Z,4.47
2018-12-24T15:59:54.042Z,3.07
2018-12-24T16:02:23.588Z,2.60
2018-12-24T16:16:14.336Z,2.20
2018-12-24T16:19:07.026Z,1.90
2018-12-24T16:21:36.348Z,2.50
2018-12-24T16:24:05.677Z,1.93
2018-12-24T16:26:35.074Z,1.97
2018-12-24T16:29:04.447Z,1.93
2018-12-24T16:31:33.827Z,2.63
2018-12-24T16:34:03.199Z,2.20
2018-12-24T16:36:32.573Z,2.30
2018-12-24T16:39:02.016Z,1.90
2018-12-24T16:41:31.374Z,1.30
2018-12-24T16:44:00.766Z,1.13
2018-12-24T17:03:12.601Z,1.60
2018-12-24T17:05:41.993Z,1.47
2018-12-24T17:08:11.314Z,1.53
2018-12-24T17:10:40.671Z,1.00
2018-12-24T17:13:10.068Z,0.90
2018-12-24T17:15:39.391Z,1.13
2018-12-24T17:18:08.768Z,2.17
2018-12-24T17:20:38.125Z,1.47
2018-12-24T17:23:07.448Z,1.30
2018-12-24T17:25:36.819Z,1.87
2018-12-24T17:28:06.241Z,1.30
2018-12-24T17:30:35.617Z,1.87
2018-12-24T17:33:04.976Z,0.83
2018-12-24T17:35:34.281Z,1.83
2018-12-24T17:38:03.586Z,1.07
2018-12-24T17:40:32.948Z,1.57
2018-12-24T17:43:02.300Z,0.83
2018-12-24T17:45:31.564Z,1.53
2018-12-24T17:48:00.953Z,0.83
2018-12-24T17:50:30.351Z,1.50
2018-12-24T17:52:59.720Z,1.40
2018-12-24T17:55:29.064Z,0.90
2018-12-24T17:57:58.409Z,1.00
2018-12-24T18:00:27.758Z,1.40
2018-12-24T18:02:57.275Z,1.93
2018-12-24T18:05:26.613Z,2.70
2018-12-24T18:07:55.995Z,2.00
2018-12-24T18:10:25.977Z,2.10
2018-12-24T18:12:55.323Z,4.60
2018-12-24T18:15:24.674Z,3.73
2018-12-24T18:17:54.061Z,3.20
2018-12-24T18:20:23.398Z,2.93
2018-12-24T18:22:52.744Z,1.40
2018-12-24T18:25:22.089Z,2.00
2018-12-24T18:27:51.431Z,1.53
2018-12-24T18:30:20.707Z,1.37
2018-12-24T18:32:50.014Z,1.17
2018-12-24T18:35:19.320Z,1.57
2018-12-24T18:37:48.655Z,1.20
2018-12-24T18:40:18.021Z,1.80
2018-12-24T18:42:47.390Z,1.33
2018-12-24T18:45:16.730Z,1.23
2018-12-24T18:47:46.144Z,1.90
2018-12-24T18:50:15.486Z,2.13
2018-12-24T18:52:44.908Z,2.57
2018-12-24T18:55:14.320Z,2.60
2018-12-24T18:57:43.718Z,1.60
2018-12-24T19:00:14.078Z,1.80
2018-12-24T19:02:43.402Z,2.43
2018-12-24T19:05:12.711Z,2.50
2018-12-24T19:07:42.128Z,1.47
2018-12-24T19:10:11.733Z,1.60
2018-12-24T19:12:41.076Z,1.53
2018-12-24T19:15:10.435Z,1.30
2018-12-24T19:17:42.838Z,1.40
2018-12-24T19:20:14.908Z,1.30
2018-12-24T19:22:44.232Z,1.90
2018-12-24T19:25:13.598Z,2.10
2018-12-24T19:27:42.976Z,2.27
2018-12-24T19:30:12.311Z,3.60
2018-12-24T19:32:41.757Z,1.60
2018-12-24T19:35:11.181Z,2.10
2018-12-24T19:37:43.555Z,2.53
2018-12-24T19:40:12.935Z,1.97
2018-12-24T19:42:44.331Z,1.30
2018-12-24T19:45:15.166Z,1.40
2018-12-24T19:47:49.808Z,1.70
2018-12-24T19:50:15.677Z,1.90
2018-12-24T19:52:45.029Z,2.00
2018-12-24T19:55:14.457Z,2.23
2018-12-24T19:57:43.886Z,2.00
2018-12-24T20:00:13.272Z,1.90
2018-12-24T20:02:42.710Z,1.67
2018-12-24T20:05:12.121Z,1.47
2018-12-24T20:07:42.606Z,3.20
2018-12-24T20:10:11.995Z,2.40
2018-12-24T20:12:43.505Z,1.60
2018-12-24T20:15:12.814Z,2.50
2018-12-24T20:17:42.191Z,1.93
2018-12-24T20:20:11.592Z,1.97
2018-12-24T20:22:42.520Z,1.70
2018-12-24T20:25:11.949Z,2.20
2018-12-24T20:27:41.392Z,2.33
2018-12-24T20:30:10.727Z,2.03
2018-12-24T20:32:40.039Z,2.37
2018-12-24T20:35:09.384Z,2.00
2018-12-24T20:37:38.749Z,2.50
2018-12-24T20:40:10.394Z,1.83
2018-12-24T20:42:39.752Z,1.73
2018-12-24T20:45:09.094Z,2.20
2018-12-24T20:47:38.501Z,1.67
2018-12-24T20:50:10.764Z,1.90
2018-12-24T20:52:40.095Z,1.53
2018-12-24T20:55:09.446Z,2.97
2018-12-24T20:57:38.894Z,2.40
2018-12-24T21:00:08.595Z,2.20
2018-12-24T21:02:37.933Z,2.07
2018-12-24T21:05:08.112Z,2.00
2018-12-24T21:07:37.468Z,2.30
2018-12-24T21:10:07.063Z,2.40
2018-12-24T21:12:36.412Z,1.83
2018-12-24T21:15:05.807Z,1.77
2018-12-24T21:17:35.205Z,1.63
2018-12-24T21:20:04.829Z,3.07
2018-12-24T21:22:34.264Z,1.67
2018-12-24T21:25:03.629Z,1.40
2018-12-24T21:27:32.993Z,1.77
2018-12-24T21:30:05.720Z,2.00
2018-12-24T21:32:35.042Z,1.17
2018-12-24T21:35:04.387Z,1.50
2018-12-24T21:37:33.763Z,1.70
2018-12-24T21:40:03.098Z,1.53
2018-12-24T21:42:32.429Z,3.37
2018-12-24T21:45:01.778Z,1.60
2018-12-24T21:47:31.141Z,3.23
2018-12-24T21:50:00.539Z,1.63
2018-12-24T21:52:29.944Z,1.80
2018-12-24T21:54:59.338Z,4.47
2018-12-24T21:57:28.703Z,1.67
2018-12-24T21:59:58.062Z,2.40
2018-12-24T22:02:27.393Z,1.83
2018-12-24T22:04:57.768Z,1.60
2018-12-24T22:07:27.124Z,2.57
2018-12-24T22:09:56.451Z,2.00
2018-12-24T22:12:25.834Z,1.80
2018-12-24T22:14:55.330Z,2.37
2018-12-24T22:17:24.706Z,2.20
2018-12-24T22:19:54.010Z,1.67
2018-12-24T22:22:23.372Z,2.17
2018-12-24T22:24:52.711Z,2.50
2018-12-24T22:27:22.010Z,2.63
2018-12-24T22:29:51.390Z,2.50
2018-12-24T22:32:20.764Z,1.90
2018-12-24T22:34:50.110Z,1.73
2018-12-24T22:37:19.495Z,2.57
2018-12-24T22:39:48.883Z,2.80
2018-12-24T22:42:18.273Z,2.30
2018-12-24T22:44:47.648Z,2.40
2018-12-24T22:47:17.029Z,2.60
2018-12-24T22:49:46.413Z,3.17
2018-12-24T22:52:15.788Z,3.30
2018-12-24T22:54:45.306Z,3.20
2018-12-24T22:57:14.592Z,2.67
2018-12-24T22:59:44.103Z,2.40
2018-12-24T23:02:13.456Z,2.53
2018-12-24T23:04:42.788Z,2.57
2018-12-24T23:07:12.196Z,2.30
2018-12-24T23:09:41.566Z,1.77
2018-12-24T23:12:10.925Z,3.00
2018-12-24T23:14:40.234Z,2.00
2018-12-24T23:17:09.628Z,2.17
2018-12-24T23:19:38.961Z,2.93
2018-12-24T23:22:08.301Z,3.73
2018-12-24T23:24:37.679Z,1.83
2018-12-24T23:27:07.204Z,2.60
2018-12-24T23:29:36.664Z,2.73
2018-12-24T23:32:06.008Z,2.30
2018-12-24T23:34:35.354Z,2.73
2018-12-24T23:37:04.772Z,2.60
2018-12-24T23:39:34.260Z,2.23
2018-12-24T23:42:03.629Z,1.90
2018-12-24T23:44:32.983Z,2.23
2018-12-24T23:47:02.352Z,2.63
2018-12-24T23:49:31.677Z,3.50
2018-12-24T23:52:01.020Z,2.33
2018-12-24T23:54:30.400Z,2.27
2018-12-24T23:56:59.715Z,2.83
2018-12-24T23:59:29.052Z,2.33
